sensor_id;sensor_type;location;lat;lon;timestamp;P1;durP1;ratioP1;P2;durP2;ratioP2
76964;SDS011;65903;51.452;7.198;2024-01-15T00:00:51;53.97;;;24.50;;
76964;SDS011;65903;51.452;7.198;2024-01-15T00:01:52;57.50;;;26.90;;
76964;SDS011;65903;51.452;7.198;2024-01-15T00:02:53;58.20;;;26.27;;
76964;SDS011;65903;51.452;7.198;2024-01-15T00:03:54;54.95;;;24.50;;
76964;SDS011;65903;51.452;7.198;2024-01-15T00:04:54;45.28;;;19.77;;
76964;SDS011;65903;51.452;7.198;2024-01-15T00:05:54;50.97;;;22.27;;
76964;SDS011;65903;51.452;7.198;2024-01-15T00:06:55;56.38;;;23.85;;
76964;SDS011;65903;51.452;7.198;2024-01-15T00:07:55;52.88;;;24.38;;
76964;SDS011;65903;51.452;7.198;2024-01-15T00:08:55;58.67;;;26.38;;
76964;SDS011;65903;51.452;7.198;2024-01-15T00:09:59;61.95;;;25.90;;
76964;SDS011;65903;51.452;7.198;2024-01-15T00:11:00;54.70;;;24.02;;
76964;SDS011;65903;51.452;7.198;2024-01-15T00:12:01;46.08;;;22.52;;
76964;SDS011;65903;51.452;7.198;2024-01-15T00:13:02;50.28;;;25.95;;
76964;SDS011;65903;51.452;7.198;2024-01-15T00:14:02;55.15;;;24.60;;
76964;SDS011;65903;51.452;7.198;2024-01-15T00:15:04;54.20;;;22.95;;
76964;SDS011;65903;51.452;7.198;2024-01-15T00:16:05;32.67;;;17.40;;
76964;SDS011;65903;51.452;7.198;2024-01-15T00:17:06;55.78;;;25.13;;
76964;SDS011;65903;51.452;7.198;2024-01-15T00:18:06;53.30;;;25.08;;
76964;SDS011;65903;51.452;7.198;2024-01-15T00:19:07;51.25;;;25.45;;
76964;SDS011;65903;51.452;7.198;2024-01-15T00:20:07;51.13;;;24.63;;
76964;SDS011;65903;51.452;7.198;2024-01-15T00:21:09;36.78;;;18.60;;
76964;SDS011;65903;51.452;7.198;2024-01-15T00:22:11;44.28;;;22.40;;
76964;SDS011;65903;51.452;7.198;2024-01-15T00:23:11;51.33;;;22.52;;
76964;SDS011;65903;51.452;7.198;2024-01-15T00:24:12;51.88;;;22.40;;
76964;SDS011;65903;51.452;7.198;2024-01-15T00:25:12;41.30;;;21.13;;
76964;SDS011;65903;51.452;7.198;2024-01-15T00:26:13;41.50;;;21.38;;
76964;SDS011;65903;51.452;7.198;2024-01-15T00:27:13;43.25;;;19.23;;
76964;SDS011;65903;51.452;7.198;2024-01-15T00:28:14;44.88;;;21.05;;
76964;SDS011;65903;51.452;7.198;2024-01-15T00:29:14;38.17;;;18.77;;
76964;SDS011;65903;51.452;7.198;2024-01-15T00:30:14;46.35;;;23.33;;
76964;SDS011;65903;51.452;7.198;2024-01-15T00:31:16;50.33;;;22.23;;
76964;SDS011;65903;51.452;7.198;2024-01-15T00:32:17;42.80;;;21.02;;
76964;SDS011;65903;51.452;7.198;2024-01-15T00:33:17;41.78;;;20.58;;
76964;SDS011;65903;51.452;7.198;2024-01-15T00:34:18;45.47;;;21.35;;
76964;SDS011;65903;51.452;7.198;2024-01-15T00:35:18;45.00;;;19.85;;
76964;SDS011;65903;51.452;7.198;2024-01-15T00:36:18;42.78;;;19.67;;
76964;SDS011;65903;51.452;7.198;2024-01-15T00:37:19;38.83;;;18.20;;
76964;SDS011;65903;51.452;7.198;2024-01-15T00:38:20;46.47;;;19.40;;
76964;SDS011;65903;51.452;7.198;2024-01-15T00:39:21;42.35;;;21.17;;
76964;SDS011;65903;51.452;7.198;2024-01-15T00:40:21;45.47;;;21.38;;
76964;SDS011;65903;51.452;7.198;2024-01-15T00:41:22;44.83;;;21.58;;
76964;SDS011;65903;51.452;7.198;2024-01-15T00:42:22;42.53;;;21.25;;
76964;SDS011;65903;51.452;7.198;2024-01-15T00:43:23;44.10;;;21.10;;
76964;SDS011;65903;51.452;7.198;2024-01-15T00:44:23;36.30;;;19.30;;
76964;SDS011;65903;51.452;7.198;2024-01-15T00:45:23;42.97;;;20.38;;
76964;SDS011;65903;51.452;7.198;2024-01-15T00:46:24;34.25;;;18.52;;
76964;SDS011;65903;51.452;7.198;2024-01-15T00:47:24;36.35;;;16.75;;
76964;SDS011;65903;51.452;7.198;2024-01-15T00:48:25;39.75;;;20.00;;
76964;SDS011;65903;51.452;7.198;2024-01-15T00:49:26;29.02;;;14.63;;
76964;SDS011;65903;51.452;7.198;2024-01-15T00:50:27;41.80;;;23.00;;
76964;SDS011;65903;51.452;7.198;2024-01-15T00:51:28;42.75;;;20.95;;
76964;SDS011;65903;51.452;7.198;2024-01-15T00:52:28;42.17;;;18.85;;
76964;SDS011;65903;51.452;7.198;2024-01-15T00:53:29;37.50;;;17.23;;
76964;SDS011;65903;51.452;7.198;2024-01-15T00:54:30;42.20;;;21.23;;
76964;SDS011;65903;51.452;7.198;2024-01-15T00:55:30;42.35;;;19.65;;
76964;SDS011;65903;51.452;7.198;2024-01-15T00:56:32;38.53;;;20.80;;
76964;SDS011;65903;51.452;7.198;2024-01-15T00:57:33;28.13;;;16.77;;
76964;SDS011;65903;51.452;7.198;2024-01-15T00:58:34;37.72;;;16.25;;
76964;SDS011;65903;51.452;7.198;2024-01-15T00:59:35;37.28;;;17.60;;
76964;SDS011;65903;51.452;7.198;2024-01-15T01:00:35;41.78;;;19.88;;
76964;SDS011;65903;51.452;7.198;2024-01-15T01:01:36;43.28;;;21.77;;
76964;SDS011;65903;51.452;7.198;2024-01-15T01:02:38;40.13;;;21.98;;
76964;SDS011;65903;51.452;7.198;2024-01-15T01:03:38;39.95;;;21.83;;
76964;SDS011;65903;51.452;7.198;2024-01-15T01:04:38;37.63;;;17.98;;
76964;SDS011;65903;51.452;7.198;2024-01-15T01:05:39;46.17;;;21.58;;
76964;SDS011;65903;51.452;7.198;2024-01-15T01:06:40;32.85;;;17.60;;
76964;SDS011;65903;51.452;7.198;2024-01-15T01:07:40;44.55;;;20.98;;
76964;SDS011;65903;51.452;7.198;2024-01-15T01:08:41;29.08;;;16.02;;
76964;SDS011;65903;51.452;7.198;2024-01-15T01:09:42;45.83;;;22.08;;
76964;SDS011;65903;51.452;7.198;2024-01-15T01:10:44;44.22;;;20.10;;
76964;SDS011;65903;51.452;7.198;2024-01-15T01:11:45;47.85;;;21.73;;
76964;SDS011;65903;51.452;7.198;2024-01-15T01:12:45;44.95;;;19.85;;
76964;SDS011;65903;51.452;7.198;2024-01-15T01:13:45;35.58;;;19.08;;
76964;SDS011;65903;51.452;7.198;2024-01-15T01:14:46;40.72;;;18.52;;
76964;SDS011;65903;51.452;7.198;2024-01-15T01:15:47;41.10;;;20.42;;
76964;SDS011;65903;51.452;7.198;2024-01-15T01:16:48;41.67;;;21.15;;
76964;SDS011;65903;51.452;7.198;2024-01-15T01:17:48;39.53;;;19.80;;
76964;SDS011;65903;51.452;7.198;2024-01-15T01:18:49;37.33;;;19.80;;
76964;SDS011;65903;51.452;7.198;2024-01-15T01:19:50;38.22;;;18.05;;
76964;SDS011;65903;51.452;7.198;2024-01-15T01:20:50;40.03;;;19.63;;
76964;SDS011;65903;51.452;7.198;2024-01-15T01:21:51;30.08;;;13.68;;
76964;SDS011;65903;51.452;7.198;2024-01-15T01:22:52;38.92;;;20.45;;
76964;SDS011;65903;51.452;7.198;2024-01-15T01:23:52;31.40;;;16.83;;
76964;SDS011;65903;51.452;7.198;2024-01-15T01:24:53;39.22;;;19.45;;
76964;SDS011;65903;51.452;7.198;2024-01-15T01:25:54;31.77;;;16.50;;
76964;SDS011;65903;51.452;7.198;2024-01-15T01:26:54;42.10;;;18.67;;
76964;SDS011;65903;51.452;7.198;2024-01-15T01:27:55;40.33;;;20.50;;
76964;SDS011;65903;51.452;7.198;2024-01-15T01:28:55;35.03;;;17.25;;
76964;SDS011;65903;51.452;7.198;2024-01-15T01:29:56;45.60;;;20.45;;
76964;SDS011;65903;51.452;7.198;2024-01-15T01:30:57;42.45;;;19.33;;
76964;SDS011;65903;51.452;7.198;2024-01-15T01:31:58;40.92;;;20.52;;
76964;SDS011;65903;51.452;7.198;2024-01-15T01:32:58;34.80;;;18.02;;
76964;SDS011;65903;51.452;7.198;2024-01-15T01:33:58;40.38;;;21.85;;
76964;SDS011;65903;51.452;7.198;2024-01-15T01:34:59;37.83;;;20.38;;
76964;SDS011;65903;51.452;7.198;2024-01-15T01:35:59;41.80;;;20.58;;
76964;SDS011;65903;51.452;7.198;2024-01-15T01:37:00;39.63;;;20.38;;
76964;SDS011;65903;51.452;7.198;2024-01-15T01:38:00;40.55;;;20.58;;
76964;SDS011;65903;51.452;7.198;2024-01-15T01:39:01;39.08;;;21.77;;
76964;SDS011;65903;51.452;7.198;2024-01-15T01:40:04;37.75;;;19.92;;
76964;SDS011;65903;51.452;7.198;2024-01-15T01:41:05;29.20;;;17.13;;
76964;SDS011;65903;51.452;7.198;2024-01-15T01:42:06;41.40;;;19.02;;
76964;SDS011;65903;51.452;7.198;2024-01-15T01:43:08;43.03;;;21.52;;
76964;SDS011;65903;51.452;7.198;2024-01-15T01:44:09;33.05;;;17.55;;
76964;SDS011;65903;51.452;7.198;2024-01-15T01:45:10;30.90;;;16.50;;
76964;SDS011;65903;51.452;7.198;2024-01-15T01:46:11;39.53;;;20.60;;
76964;SDS011;65903;51.452;7.198;2024-01-15T01:47:12;40.83;;;19.33;;
76964;SDS011;65903;51.452;7.198;2024-01-15T01:48:13;43.20;;;24.10;;
76964;SDS011;65903;51.452;7.198;2024-01-15T01:49:15;36.42;;;19.98;;
76964;SDS011;65903;51.452;7.198;2024-01-15T01:50:15;36.60;;;18.20;;
76964;SDS011;65903;51.452;7.198;2024-01-15T01:51:16;40.92;;;19.45;;
76964;SDS011;65903;51.452;7.198;2024-01-15T01:52:17;37.38;;;16.15;;
76964;SDS011;65903;51.452;7.198;2024-01-15T01:53:18;38.80;;;18.27;;
76964;SDS011;65903;51.452;7.198;2024-01-15T01:54:19;28.20;;;16.08;;
76964;SDS011;65903;51.452;7.198;2024-01-15T01:55:21;37.75;;;19.63;;
76964;SDS011;65903;51.452;7.198;2024-01-15T01:56:22;31.10;;;15.45;;
76964;SDS011;65903;51.452;7.198;2024-01-15T01:57:23;43.33;;;21.08;;
76964;SDS011;65903;51.452;7.198;2024-01-15T01:58:24;36.00;;;21.15;;
76964;SDS011;65903;51.452;7.198;2024-01-15T01:59:26;36.58;;;19.27;;
76964;SDS011;65903;51.452;7.198;2024-01-15T02:00:27;43.13;;;19.80;;
76964;SDS011;65903;51.452;7.198;2024-01-15T02:01:29;34.20;;;17.75;;
76964;SDS011;65903;51.452;7.198;2024-01-15T02:02:30;39.95;;;19.35;;
76964;SDS011;65903;51.452;7.198;2024-01-15T02:03:31;30.63;;;14.93;;
76964;SDS011;65903;51.452;7.198;2024-01-15T02:04:32;37.25;;;18.67;;
76964;SDS011;65903;51.452;7.198;2024-01-15T02:05:33;27.00;;;13.93;;
76964;SDS011;65903;51.452;7.198;2024-01-15T02:06:33;32.95;;;15.60;;
76964;SDS011;65903;51.452;7.198;2024-01-15T02:07:34;38.55;;;18.17;;
76964;SDS011;65903;51.452;7.198;2024-01-15T02:08:35;35.08;;;17.65;;
76964;SDS011;65903;51.452;7.198;2024-01-15T02:09:36;39.67;;;19.58;;
76964;SDS011;65903;51.452;7.198;2024-01-15T02:10:37;35.30;;;18.15;;
76964;SDS011;65903;51.452;7.198;2024-01-15T02:11:37;36.72;;;18.85;;
76964;SDS011;65903;51.452;7.198;2024-01-15T02:12:38;33.35;;;17.15;;
76964;SDS011;65903;51.452;7.198;2024-01-15T02:13:39;31.52;;;18.25;;
76964;SDS011;65903;51.452;7.198;2024-01-15T02:14:39;33.63;;;16.58;;
76964;SDS011;65903;51.452;7.198;2024-01-15T02:15:40;31.73;;;18.70;;
76964;SDS011;65903;51.452;7.198;2024-01-15T02:16:41;31.60;;;15.85;;
76964;SDS011;65903;51.452;7.198;2024-01-15T02:18:58;35.10;;;16.30;;
76964;SDS011;65903;51.452;7.198;2024-01-15T02:19:59;41.85;;;16.63;;
76964;SDS011;65903;51.452;7.198;2024-01-15T02:20:59;27.80;;;15.57;;
76964;SDS011;65903;51.452;7.198;2024-01-15T02:22:00;35.60;;;19.38;;
76964;SDS011;65903;51.452;7.198;2024-01-15T02:23:03;26.25;;;13.70;;
76964;SDS011;65903;51.452;7.198;2024-01-15T02:24:03;33.75;;;17.27;;
76964;SDS011;65903;51.452;7.198;2024-01-15T02:25:04;37.47;;;18.10;;
76964;SDS011;65903;51.452;7.198;2024-01-15T02:26:05;31.27;;;16.30;;
76964;SDS011;65903;51.452;7.198;2024-01-15T02:27:06;27.67;;;16.17;;
76964;SDS011;65903;51.452;7.198;2024-01-15T02:28:09;39.08;;;16.75;;
76964;SDS011;65903;51.452;7.198;2024-01-15T02:29:10;33.17;;;18.50;;
76964;SDS011;65903;51.452;7.198;2024-01-15T02:30:13;31.35;;;17.40;;
76964;SDS011;65903;51.452;7.198;2024-01-15T02:32:14;33.00;;;16.45;;
76964;SDS011;65903;51.452;7.198;2024-01-15T02:33:14;20.30;;;13.98;;
76964;SDS011;65903;51.452;7.198;2024-01-15T02:34:15;31.90;;;18.15;;
76964;SDS011;65903;51.452;7.198;2024-01-15T02:35:15;29.52;;;15.65;;
76964;SDS011;65903;51.452;7.198;2024-01-15T02:36:16;21.70;;;11.90;;
76964;SDS011;65903;51.452;7.198;2024-01-15T02:37:17;39.13;;;17.90;;
76964;SDS011;65903;51.452;7.198;2024-01-15T02:38:18;36.35;;;17.15;;
76964;SDS011;65903;51.452;7.198;2024-01-15T02:39:19;34.17;;;15.65;;
76964;SDS011;65903;51.452;7.198;2024-01-15T02:40:19;31.92;;;16.33;;
76964;SDS011;65903;51.452;7.198;2024-01-15T02:41:20;32.45;;;16.98;;
76964;SDS011;65903;51.452;7.198;2024-01-15T02:42:21;28.63;;;14.77;;
76964;SDS011;65903;51.452;7.198;2024-01-15T02:43:21;32.33;;;18.00;;
76964;SDS011;65903;51.452;7.198;2024-01-15T02:44:22;35.72;;;16.90;;
76964;SDS011;65903;51.452;7.198;2024-01-15T02:45:22;36.95;;;16.95;;
76964;SDS011;65903;51.452;7.198;2024-01-15T02:46:23;40.17;;;19.02;;
76964;SDS011;65903;51.452;7.198;2024-01-15T02:47:23;35.50;;;17.63;;
76964;SDS011;65903;51.452;7.198;2024-01-15T02:48:23;38.28;;;17.70;;
76964;SDS011;65903;51.452;7.198;2024-01-15T02:49:24;35.72;;;15.82;;
76964;SDS011;65903;51.452;7.198;2024-01-15T02:50:25;31.73;;;15.38;;
76964;SDS011;65903;51.452;7.198;2024-01-15T02:51:26;32.67;;;16.05;;
76964;SDS011;65903;51.452;7.198;2024-01-15T02:52:27;25.83;;;15.18;;
76964;SDS011;65903;51.452;7.198;2024-01-15T02:53:29;35.55;;;17.45;;
76964;SDS011;65903;51.452;7.198;2024-01-15T02:54:29;34.35;;;15.65;;
76964;SDS011;65903;51.452;7.198;2024-01-15T02:55:30;32.58;;;17.90;;
76964;SDS011;65903;51.452;7.198;2024-01-15T02:56:31;30.17;;;15.95;;
76964;SDS011;65903;51.452;7.198;2024-01-15T02:57:34;36.95;;;18.67;;
76964;SDS011;65903;51.452;7.198;2024-01-15T02:58:35;31.27;;;15.95;;
76964;SDS011;65903;51.452;7.198;2024-01-15T02:59:35;35.80;;;17.42;;
76964;SDS011;65903;51.452;7.198;2024-01-15T03:00:37;29.88;;;15.43;;
76964;SDS011;65903;51.452;7.198;2024-01-15T03:01:38;34.15;;;17.15;;
76964;SDS011;65903;51.452;7.198;2024-01-15T03:02:39;33.80;;;15.27;;
76964;SDS011;65903;51.452;7.198;2024-01-15T03:03:40;30.42;;;15.65;;
76964;SDS011;65903;51.452;7.198;2024-01-15T03:04:44;20.50;;;10.48;;
76964;SDS011;65903;51.452;7.198;2024-01-15T03:05:44;31.67;;;14.85;;
76964;SDS011;65903;51.452;7.198;2024-01-15T03:06:45;25.42;;;12.43;;
76964;SDS011;65903;51.452;7.198;2024-01-15T03:07:45;28.25;;;14.00;;
76964;SDS011;65903;51.452;7.198;2024-01-15T03:08:46;32.47;;;15.70;;
76964;SDS011;65903;51.452;7.198;2024-01-15T03:09:46;20.55;;;12.20;;
76964;SDS011;65903;51.452;7.198;2024-01-15T03:10:46;26.27;;;13.85;;
76964;SDS011;65903;51.452;7.198;2024-01-15T03:11:47;24.85;;;12.48;;
76964;SDS011;65903;51.452;7.198;2024-01-15T03:12:49;20.63;;;11.38;;
76964;SDS011;65903;51.452;7.198;2024-01-15T03:13:49;26.75;;;13.35;;
76964;SDS011;65903;51.452;7.198;2024-01-15T03:14:49;21.05;;;10.10;;
76964;SDS011;65903;51.452;7.198;2024-01-15T03:15:50;25.50;;;12.80;;
76964;SDS011;65903;51.452;7.198;2024-01-15T03:16:50;28.92;;;12.63;;
76964;SDS011;65903;51.452;7.198;2024-01-15T03:17:50;19.40;;;12.10;;
76964;SDS011;65903;51.452;7.198;2024-01-15T03:18:51;30.90;;;15.23;;
76964;SDS011;65903;51.452;7.198;2024-01-15T03:19:52;26.40;;;12.88;;
76964;SDS011;65903;51.452;7.198;2024-01-15T03:20:52;32.00;;;13.75;;
76964;SDS011;65903;51.452;7.198;2024-01-15T03:21:53;28.55;;;14.93;;
76964;SDS011;65903;51.452;7.198;2024-01-15T03:22:55;28.38;;;16.38;;
76964;SDS011;65903;51.452;7.198;2024-01-15T03:23:55;27.65;;;15.63;;
76964;SDS011;65903;51.452;7.198;2024-01-15T03:24:56;28.05;;;15.68;;
76964;SDS011;65903;51.452;7.198;2024-01-15T03:25:56;28.63;;;14.38;;
76964;SDS011;65903;51.452;7.198;2024-01-15T03:26:57;31.33;;;14.32;;
76964;SDS011;65903;51.452;7.198;2024-01-15T03:27:59;25.67;;;14.77;;
76964;SDS011;65903;51.452;7.198;2024-01-15T03:29:01;27.75;;;15.38;;
76964;SDS011;65903;51.452;7.198;2024-01-15T03:30:01;30.67;;;16.05;;
76964;SDS011;65903;51.452;7.198;2024-01-15T03:31:03;31.33;;;16.58;;
76964;SDS011;65903;51.452;7.198;2024-01-15T03:32:04;31.52;;;15.57;;
76964;SDS011;65903;51.452;7.198;2024-01-15T03:33:04;27.60;;;16.30;;
76964;SDS011;65903;51.452;7.198;2024-01-15T03:34:05;33.65;;;17.48;;
76964;SDS011;65903;51.452;7.198;2024-01-15T03:35:06;35.15;;;17.30;;
76964;SDS011;65903;51.452;7.198;2024-01-15T03:36:07;27.00;;;14.90;;
76964;SDS011;65903;51.452;7.198;2024-01-15T03:37:07;28.85;;;14.77;;
76964;SDS011;65903;51.452;7.198;2024-01-15T03:38:08;26.10;;;15.15;;
76964;SDS011;65903;51.452;7.198;2024-01-15T03:39:09;35.03;;;15.73;;
76964;SDS011;65903;51.452;7.198;2024-01-15T03:40:09;24.73;;;13.88;;
76964;SDS011;65903;51.452;7.198;2024-01-15T03:41:10;28.17;;;15.75;;
76964;SDS011;65903;51.452;7.198;2024-01-15T03:42:10;30.40;;;15.65;;
76964;SDS011;65903;51.452;7.198;2024-01-15T03:43:11;30.40;;;14.40;;
76964;SDS011;65903;51.452;7.198;2024-01-15T03:44:11;23.40;;;14.05;;
76964;SDS011;65903;51.452;7.198;2024-01-15T03:45:12;30.08;;;15.13;;
76964;SDS011;65903;51.452;7.198;2024-01-15T03:46:12;30.30;;;15.13;;
76964;SDS011;65903;51.452;7.198;2024-01-15T03:47:13;26.42;;;14.27;;
76964;SDS011;65903;51.452;7.198;2024-01-15T03:48:15;28.30;;;15.35;;
76964;SDS011;65903;51.452;7.198;2024-01-15T03:49:16;31.73;;;15.70;;
76964;SDS011;65903;51.452;7.198;2024-01-15T03:50:17;26.95;;;15.05;;
76964;SDS011;65903;51.452;7.198;2024-01-15T03:51:17;22.52;;;11.85;;
76964;SDS011;65903;51.452;7.198;2024-01-15T03:52:17;29.45;;;15.48;;
76964;SDS011;65903;51.452;7.198;2024-01-15T03:53:18;34.67;;;17.20;;
76964;SDS011;65903;51.452;7.198;2024-01-15T03:54:18;33.63;;;18.08;;
76964;SDS011;65903;51.452;7.198;2024-01-15T03:55:19;31.45;;;15.93;;
76964;SDS011;65903;51.452;7.198;2024-01-15T03:56:19;30.52;;;16.27;;
76964;SDS011;65903;51.452;7.198;2024-01-15T03:57:21;30.35;;;15.48;;
76964;SDS011;65903;51.452;7.198;2024-01-15T03:58:22;25.20;;;12.57;;
76964;SDS011;65903;51.452;7.198;2024-01-15T03:59:23;34.03;;;16.77;;
76964;SDS011;65903;51.452;7.198;2024-01-15T04:00:24;28.83;;;15.68;;
76964;SDS011;65903;51.452;7.198;2024-01-15T04:01:26;29.40;;;13.73;;
76964;SDS011;65903;51.452;7.198;2024-01-15T04:02:27;17.95;;;10.68;;
76964;SDS011;65903;51.452;7.198;2024-01-15T04:03:27;24.85;;;14.50;;
76964;SDS011;65903;51.452;7.198;2024-01-15T04:04:27;28.10;;;14.15;;
76964;SDS011;65903;51.452;7.198;2024-01-15T04:05:28;31.60;;;15.90;;
76964;SDS011;65903;51.452;7.198;2024-01-15T04:06:28;23.05;;;14.27;;
76964;SDS011;65903;51.452;7.198;2024-01-15T04:07:29;26.42;;;15.63;;
76964;SDS011;65903;51.452;7.198;2024-01-15T04:08:30;28.55;;;16.52;;
76964;SDS011;65903;51.452;7.198;2024-01-15T04:09:30;20.67;;;11.13;;
76964;SDS011;65903;51.452;7.198;2024-01-15T04:10:31;27.17;;;16.00;;
76964;SDS011;65903;51.452;7.198;2024-01-15T04:11:31;21.17;;;10.90;;
76964;SDS011;65903;51.452;7.198;2024-01-15T04:12:31;26.17;;;14.80;;
76964;SDS011;65903;51.452;7.198;2024-01-15T04:13:32;30.17;;;14.73;;
76964;SDS011;65903;51.452;7.198;2024-01-15T04:14:32;25.00;;;14.82;;
76964;SDS011;65903;51.452;7.198;2024-01-15T04:15:33;31.98;;;14.93;;
76964;SDS011;65903;51.452;7.198;2024-01-15T04:16:34;26.23;;;13.15;;
76964;SDS011;65903;51.452;7.198;2024-01-15T04:17:34;26.67;;;13.73;;
76964;SDS011;65903;51.452;7.198;2024-01-15T04:18:34;25.50;;;15.35;;
76964;SDS011;65903;51.452;7.198;2024-01-15T04:19:35;20.58;;;10.32;;
76964;SDS011;65903;51.452;7.198;2024-01-15T04:20:35;20.77;;;11.55;;
76964;SDS011;65903;51.452;7.198;2024-01-15T04:21:36;29.13;;;14.40;;
76964;SDS011;65903;51.452;7.198;2024-01-15T04:22:37;24.02;;;13.32;;
76964;SDS011;65903;51.452;7.198;2024-01-15T04:23:38;24.98;;;12.85;;
76964;SDS011;65903;51.452;7.198;2024-01-15T04:24:39;33.38;;;15.15;;
76964;SDS011;65903;51.452;7.198;2024-01-15T04:25:39;20.58;;;11.48;;
76964;SDS011;65903;51.452;7.198;2024-01-15T04:26:42;25.20;;;13.23;;
76964;SDS011;65903;51.452;7.198;2024-01-15T04:27:43;28.13;;;13.82;;
76964;SDS011;65903;51.452;7.198;2024-01-15T04:28:43;26.08;;;13.75;;
76964;SDS011;65903;51.452;7.198;2024-01-15T04:29:44;23.40;;;13.60;;
76964;SDS011;65903;51.452;7.198;2024-01-15T04:30:44;26.23;;;15.10;;
76964;SDS011;65903;51.452;7.198;2024-01-15T04:31:45;26.25;;;14.10;;
76964;SDS011;65903;51.452;7.198;2024-01-15T04:32:46;27.08;;;14.20;;
76964;SDS011;65903;51.452;7.198;2024-01-15T04:33:46;29.40;;;15.30;;
76964;SDS011;65903;51.452;7.198;2024-01-15T04:34:47;26.38;;;14.73;;
76964;SDS011;65903;51.452;7.198;2024-01-15T04:35:48;26.60;;;13.88;;
76964;SDS011;65903;51.452;7.198;2024-01-15T04:36:49;24.60;;;14.65;;
76964;SDS011;65903;51.452;7.198;2024-01-15T04:37:50;28.15;;;13.82;;
76964;SDS011;65903;51.452;7.198;2024-01-15T04:38:50;27.17;;;13.52;;
76964;SDS011;65903;51.452;7.198;2024-01-15T04:39:51;30.27;;;14.57;;
76964;SDS011;65903;51.452;7.198;2024-01-15T04:40:54;24.65;;;14.82;;
76964;SDS011;65903;51.452;7.198;2024-01-15T04:41:56;28.95;;;14.23;;
76964;SDS011;65903;51.452;7.198;2024-01-15T04:42:57;26.17;;;13.40;;
76964;SDS011;65903;51.452;7.198;2024-01-15T04:43:57;27.98;;;13.63;;
76964;SDS011;65903;51.452;7.198;2024-01-15T04:44:58;22.60;;;13.02;;
76964;SDS011;65903;51.452;7.198;2024-01-15T04:45:59;24.98;;;12.18;;
76964;SDS011;65903;51.452;7.198;2024-01-15T04:46:59;24.83;;;11.45;;
76964;SDS011;65903;51.452;7.198;2024-01-15T04:48:00;31.30;;;14.32;;
76964;SDS011;65903;51.452;7.198;2024-01-15T04:49:00;26.90;;;14.23;;
76964;SDS011;65903;51.452;7.198;2024-01-15T04:50:00;25.52;;;14.13;;
76964;SDS011;65903;51.452;7.198;2024-01-15T04:51:03;22.98;;;13.23;;
76964;SDS011;65903;51.452;7.198;2024-01-15T04:52:03;19.20;;;10.88;;
76964;SDS011;65903;51.452;7.198;2024-01-15T04:53:04;27.42;;;12.45;;
76964;SDS011;65903;51.452;7.198;2024-01-15T04:54:05;26.52;;;13.35;;
76964;SDS011;65903;51.452;7.198;2024-01-15T04:55:05;25.50;;;13.20;;
76964;SDS011;65903;51.452;7.198;2024-01-15T04:56:06;22.50;;;11.93;;
76964;SDS011;65903;51.452;7.198;2024-01-15T04:57:07;26.60;;;14.00;;
76964;SDS011;65903;51.452;7.198;2024-01-15T04:58:08;29.95;;;12.32;;
76964;SDS011;65903;51.452;7.198;2024-01-15T04:59:08;25.30;;;13.57;;
76964;SDS011;65903;51.452;7.198;2024-01-15T05:00:10;23.63;;;12.52;;
76964;SDS011;65903;51.452;7.198;2024-01-15T05:01:11;27.83;;;13.77;;
76964;SDS011;65903;51.452;7.198;2024-01-15T05:02:11;24.60;;;13.70;;
76964;SDS011;65903;51.452;7.198;2024-01-15T05:03:12;25.48;;;13.77;;
76964;SDS011;65903;51.452;7.198;2024-01-15T05:04:12;27.45;;;13.88;;
76964;SDS011;65903;51.452;7.198;2024-01-15T05:05:13;28.88;;;14.55;;
76964;SDS011;65903;51.452;7.198;2024-01-15T05:06:14;27.63;;;14.98;;
76964;SDS011;65903;51.452;7.198;2024-01-15T05:07:14;29.02;;;14.45;;
76964;SDS011;65903;51.452;7.198;2024-01-15T05:08:15;24.67;;;15.00;;
76964;SDS011;65903;51.452;7.198;2024-01-15T05:09:15;25.00;;;13.88;;
76964;SDS011;65903;51.452;7.198;2024-01-15T05:10:15;30.40;;;15.27;;
76964;SDS011;65903;51.452;7.198;2024-01-15T05:11:16;26.13;;;13.15;;
76964;SDS011;65903;51.452;7.198;2024-01-15T05:12:16;30.10;;;15.70;;
76964;SDS011;65903;51.452;7.198;2024-01-15T05:13:17;31.75;;;14.80;;
76964;SDS011;65903;51.452;7.198;2024-01-15T05:14:17;26.63;;;13.88;;
76964;SDS011;65903;51.452;7.198;2024-01-15T05:15:17;26.83;;;14.27;;
76964;SDS011;65903;51.452;7.198;2024-01-15T05:16:17;23.15;;;13.38;;
76964;SDS011;65903;51.452;7.198;2024-01-15T05:17:18;24.00;;;13.55;;
76964;SDS011;65903;51.452;7.198;2024-01-15T05:18:19;27.58;;;14.15;;
76964;SDS011;65903;51.452;7.198;2024-01-15T05:19:21;26.75;;;13.63;;
76964;SDS011;65903;51.452;7.198;2024-01-15T05:20:21;33.25;;;14.38;;
76964;SDS011;65903;51.452;7.198;2024-01-15T05:21:21;16.45;;;9.93;;
76964;SDS011;65903;51.452;7.198;2024-01-15T05:22:22;25.48;;;13.77;;
76964;SDS011;65903;51.452;7.198;2024-01-15T05:23:24;27.42;;;14.07;;
76964;SDS011;65903;51.452;7.198;2024-01-15T05:24:25;28.80;;;14.15;;
76964;SDS011;65903;51.452;7.198;2024-01-15T05:25:26;19.88;;;10.48;;
76964;SDS011;65903;51.452;7.198;2024-01-15T05:26:27;13.65;;;8.23;;
76964;SDS011;65903;51.452;7.198;2024-01-15T05:27:28;28.20;;;13.15;;
76964;SDS011;65903;51.452;7.198;2024-01-15T05:28:28;26.52;;;13.88;;
76964;SDS011;65903;51.452;7.198;2024-01-15T05:29:30;28.73;;;13.50;;
76964;SDS011;65903;51.452;7.198;2024-01-15T05:30:30;27.45;;;13.80;;
76964;SDS011;65903;51.452;7.198;2024-01-15T05:31:31;27.48;;;14.18;;
76964;SDS011;65903;51.452;7.198;2024-01-15T05:32:31;25.95;;;13.48;;
76964;SDS011;65903;51.452;7.198;2024-01-15T05:33:32;24.45;;;13.20;;
76964;SDS011;65903;51.452;7.198;2024-01-15T05:34:32;25.58;;;13.32;;
76964;SDS011;65903;51.452;7.198;2024-01-15T05:35:33;24.95;;;13.27;;
76964;SDS011;65903;51.452;7.198;2024-01-15T05:36:35;27.30;;;14.48;;
76964;SDS011;65903;51.452;7.198;2024-01-15T05:37:35;25.10;;;13.10;;
76964;SDS011;65903;51.452;7.198;2024-01-15T05:38:36;26.75;;;13.00;;
76964;SDS011;65903;51.452;7.198;2024-01-15T05:39:36;23.77;;;13.10;;
76964;SDS011;65903;51.452;7.198;2024-01-15T05:40:37;27.35;;;15.13;;
76964;SDS011;65903;51.452;7.198;2024-01-15T05:41:37;26.25;;;11.73;;
76964;SDS011;65903;51.452;7.198;2024-01-15T05:42:38;31.23;;;15.45;;
76964;SDS011;65903;51.452;7.198;2024-01-15T05:43:39;24.65;;;12.80;;
76964;SDS011;65903;51.452;7.198;2024-01-15T05:44:40;25.23;;;13.50;;
76964;SDS011;65903;51.452;7.198;2024-01-15T05:45:42;27.15;;;14.00;;
76964;SDS011;65903;51.452;7.198;2024-01-15T05:46:43;28.00;;;15.15;;
76964;SDS011;65903;51.452;7.198;2024-01-15T05:47:43;21.02;;;13.60;;
76964;SDS011;65903;51.452;7.198;2024-01-15T05:48:44;23.73;;;12.80;;
76964;SDS011;65903;51.452;7.198;2024-01-15T05:49:45;21.95;;;12.25;;
76964;SDS011;65903;51.452;7.198;2024-01-15T05:50:47;23.27;;;11.60;;
76964;SDS011;65903;51.452;7.198;2024-01-15T05:51:47;21.15;;;11.15;;
76964;SDS011;65903;51.452;7.198;2024-01-15T05:52:48;25.30;;;12.40;;
76964;SDS011;65903;51.452;7.198;2024-01-15T05:53:50;23.10;;;14.05;;
76964;SDS011;65903;51.452;7.198;2024-01-15T05:54:50;21.70;;;12.52;;
76964;SDS011;65903;51.452;7.198;2024-01-15T05:55:51;27.30;;;12.70;;
76964;SDS011;65903;51.452;7.198;2024-01-15T05:56:52;28.02;;;13.55;;
76964;SDS011;65903;51.452;7.198;2024-01-15T05:57:53;26.90;;;15.02;;